createdAt,value
2022-09-26T00:02:01.657Z,66.94
2022-09-26T00:07:06.532Z,66.88
2022-09-26T00:12:11.164Z,66.92
2022-09-26T00:17:15.619Z,66.80
2022-09-26T00:22:19.832Z,66.59
2022-09-26T00:27:24.996Z,66.69
2022-09-26T00:32:28.627Z,66.92
2022-09-26T00:37:32.841Z,66.89
2022-09-26T00:42:36.279Z,67.20
2022-09-26T00:47:58.386Z,67.26
2022-09-26T00:53:07.255Z,67.18
2022-09-26T00:58:35.645Z,66.99
2022-09-26T01:03:45.376Z,67.17
2022-09-26T01:09:00.767Z,67.07
2022-09-26T01:14:09.539Z,67.23
2022-09-26T01:19:39.636Z,67.22
2022-09-26T01:24:53.583Z,67.37
2022-09-26T01:30:10.119Z,67.42
2022-09-26T01:35:57.655Z,67.29
2022-09-26T01:41:29.827Z,67.60
2022-09-26T01:47:12.534Z,67.53
2022-09-26T01:52:38.055Z,67.72
2022-09-26T01:57:55.087Z,67.72
2022-09-26T02:03:01.883Z,67.36
2022-09-26T02:08:11.954Z,67.20
2022-09-26T02:13:35.567Z,67.19
2022-09-26T02:18:45.664Z,67.04
2022-09-26T02:23:51.441Z,66.99
2022-09-26T02:28:54.393Z,67.06
2022-09-26T02:33:57.386Z,67.05
2022-09-26T02:39:02.079Z,66.91
2022-09-26T02:45:03.500Z,67.33
2022-09-26T02:50:09.353Z,67.47
2022-09-26T02:55:24.681Z,67.57
2022-09-26T03:00:36.654Z,67.47
2022-09-26T03:05:43.256Z,67.70
2022-09-26T03:10:48.491Z,67.75
2022-09-26T03:15:55.526Z,67.57
2022-09-26T03:21:01.650Z,67.75
2022-09-26T03:26:10.225Z,67.61
2022-09-26T03:31:14.173Z,67.88
2022-09-26T03:36:28.610Z,67.82
2022-09-26T03:41:31.885Z,67.67
2022-09-26T03:47:07.581Z,67.83
2022-09-26T03:52:14.976Z,67.82
2022-09-26T03:57:19.886Z,68.03
2022-09-26T04:02:34.186Z,67.62
2022-09-26T04:07:47.422Z,67.78
2022-09-26T04:12:50.330Z,67.47
2022-09-26T04:17:55.301Z,67.42
2022-09-26T04:22:59.399Z,67.44
2022-09-26T04:28:02.913Z,67.69
2022-09-26T04:33:06.186Z,67.75
2022-09-26T04:38:12.336Z,67.89
2022-09-26T04:43:15.376Z,67.80
2022-09-26T04:48:18.672Z,68.00
2022-09-26T04:53:39.574Z,67.73
2022-09-26T04:58:49.266Z,67.90
2022-09-26T05:03:53.567Z,67.99
2022-09-26T05:08:57.790Z,68.18
2022-09-26T05:14:15.042Z,68.25
2022-09-26T05:19:18.212Z,68.07
2022-09-26T05:24:58.670Z,68.07
2022-09-26T05:30:01.645Z,68.01
2022-09-26T05:35:06.497Z,67.92
2022-09-26T05:40:35.063Z,68.08
2022-09-26T05:45:38.685Z,68.09
2022-09-26T05:50:44.190Z,68.22
2022-09-26T05:55:51.179Z,67.86
2022-09-26T06:01:08.302Z,67.87
2022-09-26T06:06:21.999Z,67.88
2022-09-26T06:11:32.540Z,68.05
2022-09-26T06:16:35.661Z,68.05
2022-09-26T06:21:40.281Z,68.11
2022-09-26T06:26:47.751Z,68.25
2022-09-26T06:31:51.958Z,68.07
2022-09-26T06:37:15.067Z,68.18
2022-09-26T06:42:18.026Z,68.04
2022-09-26T06:47:49.332Z,68.06
2022-09-26T06:53:09.297Z,68.43
2022-09-26T06:58:12.249Z,68.32
2022-09-26T07:03:32.888Z,68.29
2022-09-26T07:09:02.219Z,68.30
2022-09-26T07:14:25.042Z,68.30
2022-09-26T07:19:34.404Z,68.08
2022-09-26T07:24:39.806Z,68.15
2022-09-26T07:29:42.833Z,67.95
2022-09-26T07:34:48.198Z,68.20
2022-09-26T07:39:54.729Z,68.24
2022-09-26T07:50:23.119Z,68.21
2022-09-26T07:56:05.302Z,67.88
2022-09-26T08:01:38.892Z,68.14
2022-09-26T08:07:12.648Z,67.89
2022-09-26T08:12:27.089Z,67.97
2022-09-26T08:17:41.628Z,67.83
2022-09-26T08:22:44.871Z,67.62
2022-09-26T08:27:50.636Z,67.64
2022-09-26T08:32:59.174Z,67.39
2022-09-26T08:38:04.084Z,67.72
2022-09-26T08:43:49.866Z,68.92
2022-09-26T08:49:24.201Z,67.21
2022-09-26T08:54:47.139Z,67.30
2022-09-26T08:59:52.974Z,67.28
2022-09-26T09:05:09.056Z,67.47
2022-09-26T09:10:20.114Z,67.72
2022-09-26T09:15:52.986Z,67.98
2022-09-26T09:21:23.313Z,68.06
2022-09-26T09:32:25.829Z,68.43
2022-09-26T09:37:51.256Z,68.49
2022-09-26T09:43:26.639Z,68.66
2022-09-26T09:48:30.234Z,68.87
2022-09-26T09:53:42.304Z,68.96
2022-09-26T09:59:08.632Z,68.68
2022-09-26T10:05:01.766Z,68.90
2022-09-26T10:10:10.549Z,68.95
2022-09-26T10:15:44.824Z,69.18
2022-09-26T10:21:17.936Z,69.17
2022-09-26T10:26:34.632Z,68.99
2022-09-26T10:31:42.629Z,69.06
2022-09-26T10:36:56.139Z,69.22
2022-09-26T10:42:01.141Z,69.11
2022-09-26T10:47:08.446Z,69.02
2022-09-26T10:52:34.741Z,69.03
2022-09-26T10:57:46.151Z,69.10
2022-09-26T11:02:52.583Z,68.83
2022-09-26T11:07:57.148Z,68.62
2022-09-26T11:13:22.313Z,68.79
2022-09-26T11:18:53.494Z,68.69
2022-09-26T11:24:11.921Z,68.65
2022-09-26T11:29:24.227Z,68.77
2022-09-26T11:34:45.316Z,68.56
2022-09-26T11:39:58.618Z,68.49
2022-09-26T11:45:10.099Z,68.51
2022-09-26T11:51:00.087Z,68.56
2022-09-26T11:56:50.471Z,68.38
2022-09-26T12:02:03.869Z,68.17
2022-09-26T12:07:43.800Z,67.94
2022-09-26T12:12:57.738Z,67.66
2022-09-26T12:18:15.341Z,67.55
2022-09-26T12:23:37.902Z,67.51
2022-09-26T12:29:05.240Z,67.14
2022-09-26T12:34:31.545Z,66.88
2022-09-26T12:39:46.298Z,66.83
2022-09-26T12:45:06.572Z,66.81
2022-09-26T12:50:31.282Z,66.28
2022-09-26T12:56:07.011Z,65.98
2022-09-26T13:01:37.570Z,65.90
2022-09-26T13:07:08.059Z,65.70
2022-09-26T13:12:48.029Z,65.41
2022-09-26T13:17:57.956Z,65.52
2022-09-26T13:23:31.725Z,65.64
2022-09-26T13:29:13.304Z,65.56
2022-09-26T13:34:58.105Z,65.02
2022-09-26T13:40:39.548Z,65.21
2022-09-26T13:45:50.802Z,65.25
2022-09-26T13:51:06.648Z,65.31
2022-09-26T13:56:49.625Z,65.30
2022-09-26T14:02:18.095Z,64.99
2022-09-26T14:08:02.306Z,64.58
2022-09-26T14:13:21.911Z,64.10
2022-09-26T14:19:04.969Z,63.58
2022-09-26T14:24:25.926Z,63.41
2022-09-26T14:29:29.026Z,64.48
2022-09-26T14:34:36.066Z,65.87
2022-09-26T14:39:43.895Z,65.13
2022-09-26T14:45:06.110Z,64.13
2022-09-26T14:50:18.414Z,63.35
2022-09-26T14:55:21.718Z,62.54
2022-09-26T15:00:40.638Z,62.28
2022-09-26T15:05:45.300Z,62.04
2022-09-26T15:10:49.110Z,61.83
2022-09-26T15:16:03.549Z,61.51
2022-09-26T15:21:35.440Z,61.74
2022-09-26T15:26:38.459Z,61.93
2022-09-26T15:31:43.831Z,61.69
2022-09-26T15:36:56.601Z,61.65
2022-09-26T15:42:20.392Z,61.46
2022-09-26T15:47:40.580Z,61.35
2022-09-26T15:52:49.702Z,61.34
2022-09-26T15:57:57.905Z,60.55
2022-09-26T16:08:43.000Z,60.76
2022-09-26T16:13:50.724Z,60.91
2022-09-26T16:18:59.931Z,61.46
2022-09-26T16:24:34.740Z,62.12
2022-09-26T16:29:40.480Z,62.43
2022-09-26T16:34:45.877Z,62.96
2022-09-26T16:40:00.223Z,63.66
2022-09-26T16:45:08.209Z,63.83
2022-09-26T16:50:30.582Z,64.23
2022-09-26T16:55:38.702Z,64.42
2022-09-26T17:01:01.199Z,64.82
2022-09-26T17:06:06.935Z,64.84
2022-09-26T17:11:18.191Z,65.19
2022-09-26T17:16:23.845Z,65.51
2022-09-26T17:21:29.399Z,65.52
2022-09-26T17:26:35.781Z,65.77
2022-09-26T17:31:41.010Z,66.00
2022-09-26T17:36:49.727Z,66.05
2022-09-26T17:41:59.507Z,66.43
2022-09-26T17:47:07.015Z,66.50
2022-09-26T17:52:38.380Z,66.76
2022-09-26T17:57:43.524Z,66.75
2022-09-26T18:02:54.166Z,66.90
2022-09-26T18:08:04.992Z,67.13
2022-09-26T18:13:16.195Z,67.20
2022-09-26T18:18:25.045Z,67.24
2022-09-26T18:23:43.311Z,67.28
2022-09-26T18:28:48.707Z,67.52
2022-09-26T18:33:58.885Z,67.59
2022-09-26T18:39:01.958Z,67.52
2022-09-26T18:44:05.742Z,67.53
2022-09-26T18:49:12.186Z,67.61
2022-09-26T18:54:17.439Z,67.54
2022-09-26T18:59:20.567Z,67.44
2022-09-26T19:04:23.576Z,67.61
2022-09-26T19:09:32.233Z,67.50
2022-09-26T19:14:35.665Z,67.47
2022-09-26T19:19:38.704Z,67.33
2022-09-26T19:24:46.846Z,67.52
2022-09-26T19:29:58.875Z,67.20
2022-09-26T19:35:08.208Z,67.38
2022-09-26T19:40:51.032Z,67.09
2022-09-26T19:46:22.915Z,67.09
2022-09-26T19:51:59.591Z,67.12
2022-09-26T19:57:30.591Z,67.19
2022-09-26T20:02:54.254Z,67.13
2022-09-26T20:07:58.231Z,67.10
2022-09-26T20:13:10.165Z,67.05
2022-09-26T20:24:14.067Z,67.02
2022-09-26T20:29:27.354Z,66.93
2022-09-26T20:34:47.798Z,67.10
2022-09-26T20:40:26.076Z,67.05
2022-09-26T20:45:39.776Z,67.02
2022-09-26T20:50:58.939Z,67.33
2022-09-26T20:56:31.921Z,67.56
2022-09-26T21:01:42.379Z,67.66
2022-09-26T21:07:06.403Z,67.56
2022-09-26T21:12:21.833Z,67.53
2022-09-26T21:17:30.348Z,67.71
2022-09-26T21:22:37.748Z,67.97
2022-09-26T21:27:42.126Z,67.89
2022-09-26T21:32:53.383Z,67.96
2022-09-26T21:37:59.752Z,67.78
2022-09-26T21:43:11.881Z,67.73
2022-09-26T21:48:18.666Z,67.49
2022-09-26T21:53:29.225Z,67.61
2022-09-26T21:58:38.874Z,67.44
2022-09-26T22:03:42.779Z,67.35
2022-09-26T22:08:47.482Z,67.18
2022-09-26T22:13:51.873Z,67.27
2022-09-26T22:18:56.142Z,67.35
2022-09-26T22:24:00.711Z,67.49
2022-09-26T22:29:05.993Z,67.22
2022-09-26T22:34:12.521Z,67.17
2022-09-26T22:39:16.472Z,67.17
2022-09-26T22:44:21.090Z,67.02
2022-09-26T22:49:27.517Z,66.97
2022-09-26T22:54:30.987Z,67.12
2022-09-26T22:59:35.000Z,66.98
2022-09-26T23:04:49.096Z,67.10
2022-09-26T23:09:53.308Z,67.31
2022-09-26T23:14:58.661Z,67.40
2022-09-26T23:20:02.545Z,67.11
2022-09-26T23:25:08.536Z,67.48
2022-09-26T23:30:14.062Z,67.49
2022-09-26T23:35:17.582Z,67.37
2022-09-26T23:40:21.560Z,67.69
2022-09-26T23:45:27.439Z,68.03
2022-09-26T23:50:32.592Z,68.07
2022-09-26T23:55:36.935Z,67.88
